Weather at Sola Airport [CLOSED]

Public forecast

Using degrees Celsius for public forecast. Weather courtesy of forecast.io.

Closest aviation weather report (METAR) to Sola Airport

Closest report is Ignacio Agramonte International Airport, 19.1 nm (35.3 km) SW.

2024/05/22 05:50 (retrieved 31 minutes ago)

MUCM 220550Z 11004KT 9000 BKN090 22/20 Q1012

Closest aviation forecast (TAF) to Sola Airport

Closest forecast is Ignacio Agramonte International Airport, 19.1 nm (35.3 km) SW.

2024/05/22 06:07 (retrieved 14 minutes ago)

TAF MUCM 220500Z 2206/2306 VRB04KT 9000 FEW030 TEMPO 2207/2212 5000 BR BECMG 2214/2216 05008KT SCT020 TEMPO 2219/2224 VRB12KT 4000 TSRA RA SCT018CB BKN020 BECMG 2300/2302 VRB03KT FEW030